createdAt,value
2023-11-18T00:01:33.027Z,97.00
2023-11-18T00:03:59.711Z,97.04
2023-11-18T00:06:26.136Z,96.79
2023-11-18T00:08:52.530Z,96.91
2023-11-18T00:11:19.750Z,97.11
2023-11-18T00:13:46.579Z,97.36
2023-11-18T00:16:17.563Z,96.95
2023-11-18T00:18:44.440Z,96.98
2023-11-18T00:21:11.006Z,96.96
2023-11-18T00:23:37.444Z,96.68
2023-11-18T00:26:04.327Z,96.88
2023-11-18T00:28:30.954Z,97.29
2023-11-18T00:30:57.503Z,96.94
2023-11-18T00:33:24.044Z,97.12
2023-11-18T00:35:50.473Z,97.25
2023-11-18T00:38:17.166Z,97.18
2023-11-18T00:40:43.584Z,97.13
2023-11-18T00:43:09.954Z,97.29
2023-11-18T00:45:36.341Z,97.18
2023-11-18T00:48:02.747Z,97.42
2023-11-18T00:50:29.441Z,97.10
2023-11-18T00:52:55.899Z,97.40
2023-11-18T00:55:22.412Z,97.22
2023-11-18T00:57:48.883Z,97.75
2023-11-18T01:00:22.714Z,97.26
2023-11-18T01:02:50.916Z,97.20
2023-11-18T01:05:17.890Z,97.39
2023-11-18T01:07:44.822Z,97.25
2023-11-18T01:10:12.105Z,97.72
2023-11-18T01:12:38.599Z,97.03
2023-11-18T01:15:05.516Z,97.24
2023-11-18T01:17:32.517Z,97.06
2023-11-18T01:19:59.651Z,97.51
2023-11-18T01:22:26.259Z,97.28
2023-11-18T01:24:52.817Z,97.23
2023-11-18T01:27:20.397Z,97.51
2023-11-18T01:29:47.994Z,97.44
2023-11-18T01:32:15.171Z,97.41
2023-11-18T01:34:41.802Z,97.17
2023-11-18T01:37:08.450Z,97.50
2023-11-18T01:39:35.456Z,97.01
2023-11-18T01:42:04.167Z,97.22
2023-11-18T01:44:31.190Z,96.96
2023-11-18T01:46:59.109Z,96.96
2023-11-18T01:49:28.453Z,97.26
2023-11-18T01:51:55.727Z,97.32
2023-11-18T01:54:24.696Z,96.88
2023-11-18T01:56:53.060Z,97.08
2023-11-18T01:59:19.953Z,97.34
2023-11-18T02:01:52.226Z,96.92
2023-11-18T02:04:20.814Z,97.19
2023-11-18T02:06:49.697Z,97.10
2023-11-18T02:09:20.271Z,97.04
2023-11-18T02:11:57.515Z,97.15
2023-11-18T02:14:27.887Z,96.96
2023-11-18T02:16:59.486Z,96.96
2023-11-18T02:19:27.566Z,97.12
2023-11-18T02:21:55.212Z,97.22
2023-11-18T02:24:34.386Z,97.25
2023-11-18T02:27:01.847Z,96.95
2023-11-18T02:29:37.400Z,96.92
2023-11-18T02:32:27.895Z,97.16
2023-11-18T02:35:11.197Z,96.92
2023-11-18T02:37:50.192Z,97.04
2023-11-18T02:40:38.895Z,97.03
2023-11-18T02:43:06.277Z,96.89
2023-11-18T02:45:34.261Z,97.23
2023-11-18T02:48:01.242Z,97.27
2023-11-18T02:50:31.149Z,97.14
2023-11-18T02:52:57.585Z,97.22
2023-11-18T02:55:25.372Z,97.43
2023-11-18T02:57:54.609Z,97.32
2023-11-18T03:00:24.219Z,97.10
2023-11-18T03:02:53.099Z,97.06
2023-11-18T03:05:20.132Z,97.44
2023-11-18T03:07:50.526Z,97.55
2023-11-18T03:10:23.685Z,97.21
2023-11-18T03:12:51.598Z,97.40
2023-11-18T03:15:18.073Z,97.30
2023-11-18T03:17:45.989Z,97.24
2023-11-18T03:20:17.922Z,97.55
2023-11-18T03:22:48.491Z,97.41
2023-11-18T03:25:15.512Z,97.12
2023-11-18T03:27:42.142Z,97.54
2023-11-18T03:30:09.588Z,97.31
2023-11-18T03:32:38.825Z,97.07
2023-11-18T03:35:10.291Z,97.26
2023-11-18T03:37:39.957Z,97.17
2023-11-18T03:40:14.592Z,97.36
2023-11-18T03:42:42.447Z,97.24
2023-11-18T03:45:10.316Z,97.06
2023-11-18T03:47:37.523Z,97.33
2023-11-18T03:50:04.276Z,97.39
2023-11-18T03:52:30.799Z,97.12
2023-11-18T03:54:57.253Z,96.97
2023-11-18T03:57:23.745Z,97.16
2023-11-18T03:59:50.193Z,97.12
2023-11-18T04:02:16.641Z,97.24
2023-11-18T04:04:43.104Z,97.11
2023-11-18T04:07:09.515Z,97.18
2023-11-18T04:09:35.958Z,97.30
2023-11-18T04:12:04.015Z,97.04
2023-11-18T04:14:30.414Z,97.42
2023-11-18T04:16:58.601Z,97.14
2023-11-18T04:19:25.679Z,97.11
2023-11-18T04:21:52.059Z,97.18
2023-11-18T04:24:18.484Z,97.21
2023-11-18T04:26:44.882Z,97.05
2023-11-18T04:29:11.323Z,97.02
2023-11-18T04:31:38.460Z,97.40
2023-11-18T04:34:07.656Z,97.25
2023-11-18T04:36:34.062Z,97.56
2023-11-18T04:39:00.532Z,97.05
2023-11-18T04:41:27.091Z,97.02
2023-11-18T04:43:54.449Z,97.04
2023-11-18T04:46:20.988Z,97.21
2023-11-18T04:48:48.834Z,97.43
2023-11-18T04:51:15.341Z,97.97
2023-11-18T04:53:41.788Z,97.92
2023-11-18T04:56:11.365Z,97.59
2023-11-18T04:58:40.180Z,97.29
2023-11-18T05:01:06.664Z,97.32
2023-11-18T05:03:33.168Z,97.77
2023-11-18T05:05:59.672Z,97.78
2023-11-18T05:08:26.739Z,98.04
2023-11-18T05:10:53.342Z,97.92
2023-11-18T05:13:20.077Z,98.22
2023-11-18T05:15:47.770Z,98.26
2023-11-18T05:18:15.774Z,97.95
2023-11-18T05:20:43.398Z,98.02
2023-11-18T05:23:12.920Z,98.27
2023-11-18T05:25:44.282Z,97.60
2023-11-18T05:28:10.979Z,98.07
2023-11-18T05:30:38.181Z,97.58
2023-11-18T05:33:08.388Z,97.75
2023-11-18T05:35:36.118Z,97.94
2023-11-18T05:38:04.144Z,97.47
2023-11-18T05:40:31.069Z,97.69
2023-11-18T05:42:58.615Z,97.81
2023-11-18T05:45:33.130Z,97.75
2023-11-18T05:47:59.922Z,97.77
2023-11-18T05:50:27.109Z,97.54
2023-11-18T05:52:54.717Z,97.61
2023-11-18T05:55:21.515Z,97.63
2023-11-18T05:57:48.454Z,97.69
2023-11-18T06:00:20.885Z,97.57
2023-11-18T06:02:52.687Z,97.51
2023-11-18T06:05:19.355Z,97.33
2023-11-18T06:07:45.850Z,97.87
2023-11-18T06:10:13.254Z,97.95
2023-11-18T06:12:41.943Z,97.60
2023-11-18T06:15:10.176Z,97.52
2023-11-18T06:17:36.718Z,97.89
2023-11-18T06:20:07.124Z,97.53
2023-11-18T06:22:33.585Z,98.20
2023-11-18T06:25:00.079Z,97.87
2023-11-18T06:27:26.471Z,98.14
2023-11-18T06:29:55.530Z,97.87
2023-11-18T06:32:22.023Z,97.90
2023-11-18T06:34:50.201Z,98.04
2023-11-18T06:37:16.639Z,98.16
2023-11-18T06:39:45.266Z,97.97
2023-11-18T06:42:12.666Z,97.95
2023-11-18T06:44:39.253Z,97.89
2023-11-18T06:47:07.598Z,98.07
2023-11-18T06:49:37.959Z,97.62
2023-11-18T06:52:04.630Z,97.66
2023-11-18T06:54:34.202Z,97.78
2023-11-18T06:57:00.604Z,98.03
2023-11-18T06:59:27.304Z,98.03
2023-11-18T07:01:53.829Z,98.10
2023-11-18T07:04:20.272Z,98.06
2023-11-18T07:06:46.750Z,98.17
2023-11-18T07:09:21.666Z,98.19
2023-11-18T07:11:49.321Z,97.79
2023-11-18T07:14:16.403Z,98.02
2023-11-18T07:16:44.138Z,97.66
2023-11-18T07:19:20.836Z,98.30
2023-11-18T07:21:48.075Z,98.11
2023-11-18T07:24:14.620Z,97.88
2023-11-18T07:26:40.983Z,98.05
2023-11-18T07:29:10.235Z,98.06
2023-11-18T07:31:37.195Z,97.82
2023-11-18T07:34:06.425Z,98.02
2023-11-18T07:36:34.089Z,98.38
2023-11-18T07:39:04.233Z,98.52
2023-11-18T07:41:33.758Z,98.45
2023-11-18T07:44:01.292Z,98.38
2023-11-18T07:46:29.693Z,98.59
2023-11-18T07:48:56.573Z,98.60
2023-11-18T07:51:24.003Z,98.53
2023-11-18T07:53:50.494Z,98.65
2023-11-18T07:56:17.692Z,98.97
2023-11-18T07:58:47.982Z,98.67
2023-11-18T08:01:17.109Z,99.20
2023-11-18T08:03:44.946Z,98.83
2023-11-18T08:06:13.055Z,98.92
2023-11-18T08:08:39.461Z,98.92
2023-11-18T08:11:06.910Z,98.54
2023-11-18T08:13:33.513Z,98.84
2023-11-18T08:16:00.343Z,98.83
2023-11-18T08:18:28.640Z,98.89
2023-11-18T08:20:55.100Z,98.87
2023-11-18T08:23:21.748Z,98.93
2023-11-18T08:25:48.316Z,98.51
2023-11-18T08:28:14.877Z,98.91
2023-11-18T08:30:41.325Z,99.22
2023-11-18T08:33:10.832Z,98.64
2023-11-18T08:35:38.010Z,98.90
2023-11-18T08:38:05.450Z,99.06
2023-11-18T08:40:31.974Z,99.32
2023-11-18T08:42:58.980Z,99.17
2023-11-18T08:45:30.690Z,98.72
2023-11-18T08:47:57.839Z,98.88
2023-11-18T08:50:25.448Z,98.67
2023-11-18T08:53:00.272Z,98.95
2023-11-18T08:55:42.448Z,99.16
2023-11-18T08:58:21.640Z,99.15
2023-11-18T09:00:53.155Z,98.80
2023-11-18T09:03:37.494Z,98.74
2023-11-18T09:06:07.408Z,98.79
2023-11-18T09:08:36.523Z,99.23
2023-11-18T09:11:08.130Z,98.58
2023-11-18T09:13:39.688Z,99.18
2023-11-18T09:16:10.704Z,98.87
2023-11-18T09:18:42.975Z,98.96
2023-11-18T09:21:15.293Z,99.14
2023-11-18T09:23:43.403Z,98.95
2023-11-18T09:26:11.331Z,99.11
2023-11-18T09:28:38.819Z,99.13
2023-11-18T09:31:06.314Z,98.39
2023-11-18T09:33:34.705Z,98.43
2023-11-18T09:36:08.610Z,98.35
2023-11-18T09:38:36.665Z,98.27
2023-11-18T09:41:05.204Z,98.70
2023-11-18T09:43:46.426Z,98.69
2023-11-18T09:46:14.443Z,98.49
2023-11-18T09:49:00.503Z,98.32
2023-11-18T09:51:31.070Z,97.99
2023-11-18T09:54:02.080Z,97.54
2023-11-18T09:56:46.752Z,98.33
2023-11-18T09:59:45.886Z,97.80
2023-11-18T10:02:13.338Z,97.64
2023-11-18T10:04:40.360Z,97.52
2023-11-18T10:07:12.280Z,97.37
2023-11-18T10:09:39.930Z,97.70
2023-11-18T10:12:09.501Z,97.40
2023-11-18T10:14:36.759Z,97.35
2023-11-18T10:17:09.875Z,97.45
2023-11-18T10:20:00.659Z,97.13
2023-11-18T10:22:30.776Z,96.84
2023-11-18T10:24:58.330Z,96.22
2023-11-18T10:27:28.569Z,95.82
2023-11-18T10:30:20.008Z,96.00
2023-11-18T10:33:08.953Z,95.51
2023-11-18T10:35:38.260Z,94.77
2023-11-18T10:38:07.728Z,93.91
2023-11-18T10:40:37.659Z,93.76
2023-11-18T10:43:10.485Z,93.53
2023-11-18T10:45:41.300Z,92.55
2023-11-18T10:48:09.509Z,92.44
2023-11-18T10:50:35.985Z,92.24
2023-11-18T10:53:04.907Z,92.19
2023-11-18T10:55:43.726Z,91.91
2023-11-18T10:58:10.412Z,91.77
2023-11-18T11:00:56.745Z,91.70
2023-11-18T11:03:24.921Z,91.60
2023-11-18T11:05:53.414Z,91.59
2023-11-18T11:08:29.222Z,91.16
2023-11-18T11:11:08.983Z,90.36
2023-11-18T11:13:38.685Z,90.42
2023-11-18T11:16:08.766Z,90.62
2023-11-18T11:18:40.136Z,90.78
2023-11-18T11:21:17.508Z,89.96
2023-11-18T11:24:13.439Z,89.39
2023-11-18T11:26:59.533Z,89.45
2023-11-18T11:29:59.103Z,89.62
2023-11-18T11:32:33.346Z,89.04
2023-11-18T11:35:09.648Z,88.73
2023-11-18T11:37:37.960Z,88.83
2023-11-18T11:40:08.625Z,88.78
2023-11-18T11:42:35.713Z,88.69
2023-11-18T11:45:03.076Z,88.97
2023-11-18T11:47:37.416Z,88.93
2023-11-18T11:50:22.589Z,88.79
2023-11-18T11:52:59.858Z,89.25
2023-11-18T11:55:37.515Z,90.17
2023-11-18T11:58:04.037Z,90.22
2023-11-18T12:00:35.448Z,90.45
2023-11-18T12:03:05.374Z,90.46
2023-11-18T12:05:34.665Z,91.05
2023-11-18T12:08:01.209Z,91.51
2023-11-18T12:10:29.533Z,91.66
2023-11-18T12:13:18.691Z,91.78
2023-11-18T12:15:57.816Z,92.21
2023-11-18T12:18:25.428Z,92.28
2023-11-18T12:21:04.349Z,92.47
2023-11-18T12:23:32.745Z,93.10
2023-11-18T12:25:59.591Z,92.79
2023-11-18T12:28:36.946Z,92.80
2023-11-18T12:31:14.280Z,92.63
2023-11-18T12:33:56.000Z,92.73
2023-11-18T12:36:31.735Z,92.59
2023-11-18T12:39:20.052Z,92.88
2023-11-18T12:42:07.525Z,92.74
2023-11-18T12:44:40.476Z,92.97
2023-11-18T12:47:19.510Z,93.29
2023-11-18T12:49:51.032Z,93.22
2023-11-18T12:52:19.741Z,93.63
2023-11-18T12:54:51.676Z,93.31
2023-11-18T12:57:23.668Z,93.00
2023-11-18T12:59:51.146Z,93.00
2023-11-18T13:02:24.664Z,93.62
2023-11-18T13:04:53.894Z,93.73
2023-11-18T13:07:22.145Z,93.84
2023-11-18T13:09:49.255Z,93.73
2023-11-18T13:12:16.443Z,94.33
2023-11-18T13:14:43.913Z,94.43
2023-11-18T13:17:12.804Z,94.56
2023-11-18T13:19:40.685Z,94.60
2023-11-18T13:22:10.451Z,94.97
2023-11-18T13:24:40.960Z,94.96
2023-11-18T13:27:09.764Z,95.08
2023-11-18T13:29:38.118Z,95.26
2023-11-18T13:32:05.107Z,95.54
2023-11-18T13:34:38.772Z,94.94
2023-11-18T13:37:07.830Z,95.42
2023-11-18T13:39:35.318Z,95.56
2023-11-18T13:42:32.294Z,95.90
2023-11-18T13:45:10.413Z,95.99
2023-11-18T13:47:37.885Z,95.54
2023-11-18T13:50:09.606Z,95.83
2023-11-18T13:52:37.092Z,95.57
2023-11-18T13:55:07.426Z,95.42
2023-11-18T13:57:33.901Z,95.43
2023-11-18T14:00:00.460Z,95.60
2023-11-18T14:02:29.617Z,95.07
2023-11-18T14:04:56.773Z,94.52
2023-11-18T14:07:25.355Z,94.34
2023-11-18T14:09:55.509Z,94.41
2023-11-18T14:12:23.478Z,94.46
2023-11-18T14:14:50.617Z,94.55
2023-11-18T14:17:17.768Z,94.90
2023-11-18T14:19:44.287Z,94.90
2023-11-18T14:22:11.247Z,94.58
2023-11-18T14:24:37.822Z,94.38
2023-11-18T14:27:05.798Z,94.52
2023-11-18T14:29:32.562Z,94.82
2023-11-18T14:31:59.599Z,94.58
2023-11-18T14:34:26.554Z,94.98
2023-11-18T14:36:52.976Z,95.12
2023-11-18T14:39:23.339Z,95.28
2023-11-18T14:41:51.220Z,95.01
2023-11-18T14:44:19.541Z,94.77
2023-11-18T14:46:46.830Z,94.84
2023-11-18T14:49:13.637Z,94.92
2023-11-18T14:51:41.183Z,95.24
2023-11-18T14:54:07.746Z,94.84
2023-11-18T14:56:36.030Z,95.44
2023-11-18T14:59:02.617Z,95.35
2023-11-18T15:01:30.089Z,94.90
2023-11-18T15:03:57.368Z,95.53
2023-11-18T15:06:27.718Z,96.31
2023-11-18T15:08:54.928Z,96.32
2023-11-18T15:11:24.721Z,95.77
2023-11-18T15:13:53.955Z,95.82
2023-11-18T15:16:20.778Z,96.00
2023-11-18T15:18:53.306Z,95.73
2023-11-18T15:21:20.143Z,96.33
2023-11-18T15:23:46.684Z,96.61
2023-11-18T15:26:13.234Z,96.58
2023-11-18T15:28:39.707Z,96.65
2023-11-18T15:31:06.431Z,96.60
2023-11-18T15:33:33.100Z,96.78
2023-11-18T15:35:59.951Z,96.70
2023-11-18T15:38:26.735Z,96.54
2023-11-18T15:40:54.015Z,96.78
2023-11-18T15:43:20.591Z,96.53
2023-11-18T15:45:47.167Z,96.88
2023-11-18T15:48:15.417Z,97.05
2023-11-18T15:50:42.858Z,96.93
2023-11-18T15:53:09.829Z,96.99
2023-11-18T15:55:39.404Z,97.33
2023-11-18T15:58:05.936Z,97.50
2023-11-18T16:00:32.791Z,97.41
2023-11-18T16:03:02.621Z,97.11
2023-11-18T16:05:34.327Z,97.33
2023-11-18T16:08:02.533Z,97.39
2023-11-18T16:10:29.124Z,97.64
2023-11-18T16:12:56.752Z,98.10
2023-11-18T16:15:24.770Z,97.68
2023-11-18T16:17:51.995Z,97.71
2023-11-18T16:20:23.258Z,97.19
2023-11-18T16:22:51.817Z,97.34
2023-11-18T16:25:24.101Z,97.42
2023-11-18T16:27:52.382Z,97.48
2023-11-18T16:30:25.017Z,97.26
2023-11-18T16:32:55.059Z,97.23
2023-11-18T16:35:22.215Z,97.41
2023-11-18T16:37:52.044Z,97.17
2023-11-18T16:40:24.464Z,96.88
2023-11-18T16:42:53.557Z,97.19
2023-11-18T16:45:24.316Z,97.18
2023-11-18T16:47:52.015Z,97.24
2023-11-18T16:50:20.718Z,97.48
2023-11-18T16:52:48.860Z,97.54
2023-11-18T16:55:15.493Z,97.46
2023-11-18T16:57:42.022Z,97.23
2023-11-18T17:00:23.926Z,96.99
2023-11-18T17:02:55.448Z,97.35
2023-11-18T17:05:23.027Z,97.13
2023-11-18T17:07:53.489Z,97.53
2023-11-18T17:10:19.918Z,97.40
2023-11-18T17:12:47.205Z,97.24
2023-11-18T17:15:16.840Z,97.09
2023-11-18T17:17:45.302Z,97.15
2023-11-18T17:20:13.358Z,97.00
2023-11-18T17:22:40.621Z,97.50
2023-11-18T17:25:10.569Z,97.09
2023-11-18T17:27:37.614Z,97.20
2023-11-18T17:30:14.347Z,97.44
2023-11-18T17:32:44.336Z,97.66
2023-11-18T17:35:14.152Z,97.71
2023-11-18T17:37:41.620Z,97.87
2023-11-18T17:40:12.066Z,97.70
2023-11-18T17:42:39.397Z,97.33
2023-11-18T17:45:07.860Z,97.73
2023-11-18T17:47:42.886Z,97.43
2023-11-18T17:50:12.960Z,97.19
2023-11-18T17:52:44.812Z,97.56
2023-11-18T17:55:16.042Z,97.64
2023-11-18T17:57:44.606Z,97.82
2023-11-18T18:00:21.484Z,97.77
2023-11-18T18:02:48.597Z,97.79
2023-11-18T18:05:15.623Z,97.76
2023-11-18T18:07:42.950Z,97.88
2023-11-18T18:10:10.947Z,98.01
2023-11-18T18:12:37.868Z,98.40
2023-11-18T18:15:08.928Z,98.33
2023-11-18T18:17:37.301Z,98.13
2023-11-18T18:20:09.423Z,98.42
2023-11-18T18:22:39.852Z,98.45
2023-11-18T18:25:07.387Z,97.89
2023-11-18T18:27:34.682Z,97.77
2023-11-18T18:30:01.994Z,97.97
2023-11-18T18:32:28.499Z,97.64
2023-11-18T18:34:54.967Z,97.67
2023-11-18T18:37:23.297Z,97.80
2023-11-18T18:39:52.143Z,97.74
2023-11-18T18:42:18.597Z,97.98
2023-11-18T18:44:45.021Z,97.95
2023-11-18T18:47:11.560Z,97.92
2023-11-18T18:49:37.991Z,98.37
2023-11-18T18:52:04.800Z,98.49
2023-11-18T18:54:31.210Z,98.17
2023-11-18T18:56:57.686Z,98.19
2023-11-18T18:59:24.273Z,98.54
2023-11-18T19:01:51.505Z,98.72
2023-11-18T19:04:18.544Z,98.67
2023-11-18T19:06:45.795Z,98.70
2023-11-18T19:09:15.796Z,98.79
2023-11-18T19:11:42.296Z,98.92
2023-11-18T19:14:08.748Z,98.82
2023-11-18T19:16:35.313Z,98.82
2023-11-18T19:19:01.774Z,98.26
2023-11-18T19:21:30.846Z,98.50
2023-11-18T19:24:00.680Z,98.89
2023-11-18T19:26:27.344Z,99.20
2023-11-18T19:28:53.893Z,99.15
2023-11-18T19:31:20.315Z,99.30
2023-11-18T19:33:46.791Z,99.35
2023-11-18T19:36:13.297Z,99.44
2023-11-18T19:38:40.567Z,99.47
2023-11-18T19:41:07.182Z,99.68
2023-11-18T19:43:37.100Z,99.64
2023-11-18T19:46:03.685Z,99.60
2023-11-18T19:48:32.565Z,99.26
2023-11-18T19:50:59.190Z,99.42
2023-11-18T19:53:25.946Z,99.15
2023-11-18T19:55:53.448Z,99.19
2023-11-18T19:58:22.926Z,99.13
2023-11-18T20:00:51.014Z,98.93
2023-11-18T20:03:17.590Z,99.58
2023-11-18T20:05:44.093Z,99.55
2023-11-18T20:08:10.623Z,99.68
2023-11-18T20:10:37.157Z,99.67
2023-11-18T20:13:04.248Z,99.82
2023-11-18T20:15:30.699Z,99.78
2023-11-18T20:17:57.787Z,99.84
2023-11-18T20:20:24.439Z,99.78
2023-11-18T20:22:55.616Z,100.00
2023-11-18T20:25:23.207Z,100.00
2023-11-18T20:27:49.676Z,99.94
2023-11-18T20:30:16.244Z,99.76
2023-11-18T20:32:44.918Z,99.90
2023-11-18T20:35:12.039Z,100.00
2023-11-18T20:37:39.465Z,99.76
2023-11-18T20:40:08.601Z,99.98
2023-11-18T20:42:36.265Z,99.99
2023-11-18T20:45:02.780Z,100.00
2023-11-18T20:47:29.295Z,100.00
2023-11-18T20:49:55.834Z,100.00
2023-11-18T20:52:22.263Z,100.00
2023-11-18T20:54:48.742Z,100.00
2023-11-18T20:57:15.991Z,100.00
2023-11-18T20:59:43.613Z,100.00
2023-11-18T21:02:10.918Z,100.00
2023-11-18T21:04:37.762Z,100.00
2023-11-18T21:07:04.533Z,100.00
2023-11-18T21:09:31.000Z,100.00
2023-11-18T21:12:17.133Z,100.00
2023-11-18T21:14:49.007Z,100.00
2023-11-18T21:17:15.547Z,100.00
2023-11-18T21:19:42.956Z,100.00
2023-11-18T21:22:09.949Z,100.00
2023-11-18T21:24:37.347Z,100.00
2023-11-18T21:27:03.996Z,100.00
2023-11-18T21:29:30.437Z,100.00
2023-11-18T21:31:57.164Z,100.00
2023-11-18T21:34:23.611Z,100.00
2023-11-18T21:36:50.085Z,100.00
2023-11-18T21:39:19.113Z,100.00
2023-11-18T21:41:45.702Z,100.00
2023-11-18T21:44:12.175Z,100.00
2023-11-18T21:46:38.767Z,100.00
2023-11-18T21:49:10.411Z,100.00
2023-11-18T21:51:37.813Z,100.00
2023-11-18T21:54:04.872Z,100.00
2023-11-18T21:56:35.221Z,100.00
2023-11-18T21:59:04.283Z,100.00
2023-11-18T22:01:31.392Z,100.00
2023-11-18T22:03:58.006Z,100.00
2023-11-18T22:06:25.350Z,100.00
2023-11-18T22:08:52.399Z,100.00
2023-11-18T22:11:20.262Z,100.00
2023-11-18T22:13:50.603Z,100.00
2023-11-18T22:16:17.323Z,100.00
2023-11-18T22:18:44.832Z,100.00
2023-11-18T22:21:14.482Z,100.00
2023-11-18T22:23:40.932Z,100.00
2023-11-18T22:26:08.286Z,100.00
2023-11-18T22:28:34.978Z,100.00
2023-11-18T22:31:01.975Z,100.00
2023-11-18T22:33:30.350Z,100.00
2023-11-18T22:35:56.937Z,100.00
2023-11-18T22:38:23.603Z,100.00
2023-11-18T22:40:50.363Z,100.00
2023-11-18T22:43:16.900Z,100.00
2023-11-18T22:45:44.018Z,100.00
2023-11-18T22:48:10.567Z,100.00
2023-11-18T22:50:39.420Z,100.00
2023-11-18T22:53:09.492Z,100.00
2023-11-18T22:55:39.461Z,100.00
2023-11-18T22:58:06.099Z,100.00
2023-11-18T23:00:35.540Z,100.00
2023-11-18T23:03:03.211Z,100.00
2023-11-18T23:05:29.911Z,100.00
2023-11-18T23:07:59.243Z,100.00
2023-11-18T23:10:26.182Z,100.00
2023-11-18T23:12:53.710Z,100.00
2023-11-18T23:15:22.423Z,100.00
2023-11-18T23:17:50.502Z,100.00
2023-11-18T23:20:17.384Z,100.00
2023-11-18T23:22:43.860Z,100.00
2023-11-18T23:25:10.309Z,100.00
2023-11-18T23:27:37.789Z,100.00
2023-11-18T23:30:07.259Z,100.00
2023-11-18T23:32:34.102Z,100.00
2023-11-18T23:35:01.968Z,100.00
2023-11-18T23:37:28.899Z,100.00
2023-11-18T23:39:55.526Z,100.00
2023-11-18T23:42:22.642Z,100.00
2023-11-18T23:44:49.125Z,100.00
2023-11-18T23:47:15.626Z,100.00
2023-11-18T23:49:42.172Z,100.00
2023-11-18T23:52:08.626Z,100.00
2023-11-18T23:54:37.025Z,100.00
2023-11-18T23:57:03.646Z,100.00
2023-11-18T23:59:30.067Z,100.00
